createdAt,value
2018-09-25T00:01:07.056Z,9.90
2018-09-25T00:03:40.991Z,9.90
2018-09-25T00:06:14.777Z,9.90
2018-09-25T00:08:48.310Z,9.90
2018-09-25T00:11:21.963Z,9.90
2018-09-25T00:13:56.304Z,9.90
2018-09-25T00:16:29.702Z,9.80
2018-09-25T00:19:03.244Z,9.90
2018-09-25T00:21:36.477Z,9.90
2018-09-25T00:24:09.724Z,9.80
2018-09-25T00:26:43.000Z,9.80
2018-09-25T00:29:17.309Z,9.80
2018-09-25T00:31:50.668Z,9.90
2018-09-25T00:34:23.888Z,9.90
2018-09-25T00:36:57.090Z,10.00
2018-09-25T00:39:30.436Z,10.00
2018-09-25T00:42:03.940Z,10.00
2018-09-25T00:44:37.028Z,10.00
2018-09-25T00:47:10.588Z,10.00
2018-09-25T00:49:44.293Z,10.00
2018-09-25T00:52:17.620Z,10.00
2018-09-25T00:54:51.285Z,10.00
2018-09-25T00:57:24.884Z,10.10
2018-09-25T00:59:58.220Z,10.10
2018-09-25T01:02:32.045Z,10.10
2018-09-25T01:05:05.336Z,10.10
2018-09-25T01:07:39.620Z,10.10
2018-09-25T01:10:13.440Z,10.00
2018-09-25T01:12:50.987Z,10.00
2018-09-25T01:15:24.490Z,10.10
2018-09-25T01:17:57.517Z,10.10
2018-09-25T01:20:31.692Z,10.00
2018-09-25T01:23:05.044Z,10.10
2018-09-25T01:25:38.300Z,10.10
2018-09-25T01:28:14.239Z,10.10
2018-09-25T01:30:47.567Z,10.00
2018-09-25T01:33:20.908Z,10.10
2018-09-25T01:35:54.162Z,10.10
2018-09-25T01:38:27.513Z,10.10
2018-09-25T01:41:01.023Z,10.10
2018-09-25T01:43:34.259Z,10.10
2018-09-25T01:46:07.511Z,10.10
2018-09-25T01:48:41.438Z,10.00
2018-09-25T01:51:15.215Z,10.00
2018-09-25T01:53:48.494Z,9.90
2018-09-25T01:56:22.855Z,10.00
2018-09-25T01:58:56.218Z,10.00
2018-09-25T02:01:29.521Z,10.00
2018-09-25T02:04:02.863Z,10.00
2018-09-25T02:06:37.457Z,10.00
2018-09-25T02:09:11.825Z,10.00
2018-09-25T02:11:45.987Z,10.00
2018-09-25T02:14:19.511Z,9.90
2018-09-25T02:16:53.231Z,9.90
2018-09-25T02:19:26.581Z,10.00
2018-09-25T02:21:59.950Z,10.00
2018-09-25T02:24:34.156Z,9.90
2018-09-25T02:27:07.334Z,10.00
2018-09-25T02:29:41.039Z,9.90
2018-09-25T02:32:14.240Z,10.00
2018-09-25T02:34:47.764Z,9.90
2018-09-25T02:37:21.907Z,9.90
2018-09-25T02:39:56.241Z,9.90
2018-09-25T02:42:29.464Z,9.90
2018-09-25T02:45:02.833Z,9.90
2018-09-25T02:47:36.615Z,9.80
2018-09-25T02:50:10.732Z,9.70
2018-09-25T02:52:44.500Z,9.70
2018-09-25T02:55:17.812Z,9.70
2018-09-25T02:57:51.798Z,9.60
2018-09-25T03:00:24.988Z,9.60
2018-09-25T03:02:58.212Z,9.60
2018-09-25T03:05:32.191Z,9.50
2018-09-25T03:08:06.155Z,9.50
2018-09-25T03:10:39.879Z,9.50
2018-09-25T03:13:13.332Z,9.50
2018-09-25T03:15:47.751Z,9.50
2018-09-25T03:18:20.991Z,9.40
2018-09-25T03:20:54.956Z,9.50
2018-09-25T03:23:29.484Z,9.50
2018-09-25T03:26:05.077Z,9.50
2018-09-25T03:28:38.720Z,9.50
2018-09-25T03:31:12.047Z,9.50
2018-09-25T03:33:45.432Z,9.50
2018-09-25T03:36:18.798Z,9.40
2018-09-25T03:38:52.100Z,9.40
2018-09-25T03:41:25.268Z,9.40
2018-09-25T03:43:58.903Z,9.50
2018-09-25T03:46:32.517Z,9.50
2018-09-25T03:49:06.060Z,9.50
2018-09-25T03:51:39.932Z,9.50
2018-09-25T03:54:13.740Z,9.40
2018-09-25T03:56:47.768Z,9.50
2018-09-25T03:59:20.799Z,9.50
2018-09-25T04:01:54.080Z,9.40
2018-09-25T04:04:27.304Z,9.40
2018-09-25T04:07:02.480Z,9.40
2018-09-25T04:09:35.621Z,9.50
2018-09-25T04:12:09.332Z,9.50
2018-09-25T04:14:43.104Z,9.50
2018-09-25T04:17:16.197Z,9.40
2018-09-25T04:19:49.474Z,9.40
2018-09-25T04:22:22.700Z,9.40
2018-09-25T04:24:57.676Z,9.30
2018-09-25T04:27:31.808Z,9.40
2018-09-25T04:30:05.080Z,9.50
2018-09-25T04:32:38.908Z,9.50
2018-09-25T04:35:12.263Z,9.40
2018-09-25T04:37:45.581Z,9.40
2018-09-25T04:40:18.856Z,9.40
2018-09-25T04:42:52.884Z,9.40
2018-09-25T04:45:27.388Z,9.40
2018-09-25T04:48:01.341Z,9.40
2018-09-25T04:50:34.589Z,9.40
2018-09-25T04:53:07.908Z,9.40
2018-09-25T04:55:41.199Z,9.30
2018-09-25T04:58:15.760Z,9.30
2018-09-25T05:00:49.504Z,9.30
2018-09-25T05:03:23.580Z,9.40
2018-09-25T05:05:58.104Z,9.40
2018-09-25T05:08:31.636Z,9.40
2018-09-25T05:11:05.432Z,9.40
2018-09-25T05:13:39.836Z,9.40
2018-09-25T05:16:12.972Z,9.40
2018-09-25T05:18:47.040Z,9.40
2018-09-25T05:21:20.230Z,9.50
2018-09-25T05:23:53.508Z,9.50
2018-09-25T05:26:26.729Z,9.50
2018-09-25T05:29:00.401Z,9.50
2018-09-25T05:31:33.677Z,9.50
2018-09-25T05:34:07.036Z,9.50
2018-09-25T05:36:40.084Z,9.50
2018-09-25T05:39:14.215Z,9.40
2018-09-25T05:41:48.087Z,9.40
2018-09-25T05:44:21.516Z,9.40
2018-09-25T05:46:55.975Z,9.40
2018-09-25T05:49:29.759Z,9.40
2018-09-25T05:52:03.080Z,9.40
2018-09-25T05:54:36.321Z,9.40
2018-09-25T05:57:09.509Z,9.40
2018-09-25T05:59:43.095Z,9.50
2018-09-25T06:02:17.332Z,9.50
2018-09-25T06:04:50.460Z,9.60
2018-09-25T06:07:24.039Z,9.60
2018-09-25T06:09:57.368Z,9.60
2018-09-25T06:12:31.114Z,9.70
2018-09-25T06:15:04.393Z,9.70
2018-09-25T06:17:38.204Z,9.70
2018-09-25T06:20:11.384Z,9.80
2018-09-25T06:22:45.416Z,9.80
2018-09-25T06:25:18.704Z,9.70
2018-09-25T06:27:52.180Z,9.70
2018-09-25T06:30:25.370Z,9.50
2018-09-25T06:32:58.803Z,9.60
2018-09-25T06:35:32.174Z,9.60
2018-09-25T06:38:08.290Z,9.60
2018-09-25T06:40:41.871Z,9.60
2018-09-25T06:43:15.412Z,9.70
2018-09-25T06:45:48.733Z,9.70
2018-09-25T06:48:22.189Z,9.60
2018-09-25T06:50:55.921Z,9.70
2018-09-25T06:53:29.260Z,9.80
2018-09-25T06:56:02.552Z,9.80
2018-09-25T06:58:36.893Z,9.60
2018-09-25T07:01:11.573Z,9.70
2018-09-25T07:03:44.885Z,9.70
2018-09-25T07:06:18.516Z,9.60
2018-09-25T07:08:52.134Z,9.40
2018-09-25T07:11:25.671Z,9.50
2018-09-25T07:13:58.840Z,9.40
2018-09-25T07:16:31.927Z,9.50
2018-09-25T07:19:05.133Z,9.50
2018-09-25T07:21:38.447Z,9.50
2018-09-25T07:24:11.752Z,9.60
2018-09-25T07:26:45.327Z,9.60
2018-09-25T07:29:18.918Z,9.60
2018-09-25T07:31:52.130Z,9.80
2018-09-25T07:34:25.407Z,10.00
2018-09-25T07:36:58.877Z,10.20
2018-09-25T07:39:32.013Z,10.30
2018-09-25T07:42:06.112Z,10.40
2018-09-25T07:44:39.695Z,10.50
2018-09-25T07:47:13.396Z,10.60
2018-09-25T07:49:46.819Z,10.70
2018-09-25T07:52:20.151Z,10.70
2018-09-25T07:54:53.704Z,10.70
2018-09-25T07:57:27.408Z,10.80
2018-09-25T08:00:00.648Z,11.00
2018-09-25T08:02:33.948Z,10.90
2018-09-25T08:05:07.072Z,10.80
2018-09-25T08:07:40.604Z,10.90
2018-09-25T08:10:13.800Z,10.80
2018-09-25T08:12:47.551Z,10.80
2018-09-25T08:15:20.701Z,10.80
2018-09-25T08:17:53.848Z,10.90
2018-09-25T08:20:26.992Z,10.90
2018-09-25T08:23:00.737Z,10.90
2018-09-25T08:25:34.702Z,10.90
2018-09-25T08:28:08.286Z,10.90
2018-09-25T08:30:41.484Z,10.80
2018-09-25T08:33:15.345Z,11.00
2018-09-25T08:35:48.876Z,11.20
2018-09-25T08:38:22.761Z,11.20
2018-09-25T08:40:56.591Z,11.20
2018-09-25T08:43:29.936Z,11.20
2018-09-25T08:46:03.225Z,11.20
2018-09-25T08:48:36.662Z,11.20
2018-09-25T08:51:09.828Z,11.20
2018-09-25T08:53:43.543Z,11.10
2018-09-25T08:56:17.068Z,11.10
2018-09-25T08:58:50.429Z,11.10
2018-09-25T09:01:23.740Z,11.40
2018-09-25T09:03:56.884Z,11.20
2018-09-25T09:06:31.360Z,11.30
2018-09-25T09:09:05.100Z,11.50
2018-09-25T09:11:39.783Z,11.60
2018-09-25T09:14:12.928Z,11.60
2018-09-25T09:16:46.207Z,11.70
2018-09-25T09:19:19.528Z,11.50
2018-09-25T09:21:53.269Z,11.60
2018-09-25T09:24:27.312Z,11.60
2018-09-25T09:27:01.241Z,11.50
2018-09-25T09:29:34.923Z,11.50
2018-09-25T09:32:09.031Z,11.50
2018-09-25T09:34:42.916Z,11.40
2018-09-25T09:37:16.140Z,11.60
2018-09-25T09:39:49.630Z,11.60
2018-09-25T09:42:22.780Z,11.80
2018-09-25T09:44:56.551Z,11.90
2018-09-25T09:47:30.244Z,11.90
2018-09-25T09:50:03.607Z,11.60
2018-09-25T09:52:37.767Z,11.60
2018-09-25T09:55:11.652Z,11.70
2018-09-25T09:57:44.897Z,11.70
2018-09-25T10:00:18.213Z,11.90
2018-09-25T10:02:51.515Z,12.00
2018-09-25T10:05:24.832Z,12.00
2018-09-25T10:07:58.339Z,11.90
2018-09-25T10:10:31.671Z,12.00
2018-09-25T10:13:06.123Z,12.00
2018-09-25T10:15:39.409Z,12.10
2018-09-25T10:18:12.739Z,12.20
2018-09-25T10:20:45.935Z,12.20
2018-09-25T10:23:19.676Z,12.30
2018-09-25T10:25:53.247Z,12.30
2018-09-25T10:28:27.794Z,12.30
2018-09-25T10:31:01.500Z,12.30
2018-09-25T10:33:34.775Z,12.30
2018-09-25T10:36:08.140Z,12.40
2018-09-25T10:38:41.532Z,12.40
2018-09-25T10:41:15.274Z,12.20
2018-09-25T10:43:52.350Z,12.10
2018-09-25T10:46:25.565Z,12.30
2018-09-25T10:48:59.158Z,12.30
2018-09-25T10:51:32.964Z,12.30
2018-09-25T10:54:06.201Z,12.10
2018-09-25T10:56:39.469Z,12.30
2018-09-25T10:59:12.800Z,12.40
2018-09-25T11:01:46.192Z,12.30
2018-09-25T11:04:19.516Z,12.50
2018-09-25T11:06:54.261Z,12.40
2018-09-25T11:09:27.493Z,12.40
2018-09-25T11:12:01.373Z,12.20
2018-09-25T11:14:41.775Z,12.20
2018-09-25T11:17:14.989Z,12.40
2018-09-25T11:19:48.258Z,12.40
2018-09-25T11:22:22.089Z,12.20
2018-09-25T11:24:56.013Z,12.50
2018-09-25T11:27:29.641Z,12.60
2018-09-25T11:30:02.871Z,12.70
2018-09-25T11:32:35.909Z,12.80
2018-09-25T11:35:09.159Z,12.80
2018-09-25T11:37:42.576Z,12.90
2018-09-25T11:40:15.997Z,12.90
2018-09-25T11:42:49.112Z,13.00
2018-09-25T11:45:22.812Z,12.90
2018-09-25T11:47:56.510Z,13.00
2018-09-25T11:50:29.812Z,13.10
2018-09-25T11:53:03.168Z,13.00
2018-09-25T11:55:36.910Z,12.90
2018-09-25T11:58:11.152Z,13.00
2018-09-25T12:00:44.612Z,13.20
2018-09-25T12:03:17.768Z,13.20
2018-09-25T12:05:51.060Z,13.10
2018-09-25T12:08:24.948Z,12.90
2018-09-25T12:10:58.985Z,12.80
2018-09-25T12:13:32.372Z,13.10
2018-09-25T12:16:05.696Z,13.20
2018-09-25T12:18:38.832Z,13.50
2018-09-25T12:21:12.840Z,13.60
2018-09-25T12:23:46.311Z,13.80
2018-09-25T12:26:20.336Z,13.80
2018-09-25T12:28:54.124Z,13.70
2018-09-25T12:31:27.484Z,13.80
2018-09-25T12:34:00.800Z,13.80
2018-09-25T12:36:34.048Z,13.80
2018-09-25T12:39:08.316Z,13.80
2018-09-25T12:41:41.572Z,13.90
2018-09-25T12:44:17.075Z,13.90
2018-09-25T12:46:50.820Z,13.80
2018-09-25T12:49:24.695Z,14.10
2018-09-25T12:51:58.194Z,14.10
2018-09-25T12:54:31.999Z,13.60
2018-09-25T12:57:05.540Z,13.60
2018-09-25T12:59:38.848Z,13.20
2018-09-25T13:02:12.848Z,13.10
2018-09-25T13:04:46.398Z,13.20
2018-09-25T13:07:20.133Z,13.40
2018-09-25T13:09:53.593Z,13.60
2018-09-25T13:12:27.492Z,13.80
2018-09-25T13:15:00.759Z,13.70
2018-09-25T13:17:34.071Z,13.90
2018-09-25T13:20:07.441Z,14.20
2018-09-25T13:22:42.032Z,14.10
2018-09-25T13:25:15.840Z,14.00
2018-09-25T13:27:49.784Z,13.80
2018-09-25T13:30:23.084Z,13.80
2018-09-25T13:32:56.317Z,13.50
2018-09-25T13:35:29.564Z,13.40
2018-09-25T13:38:02.904Z,13.20
2018-09-25T13:40:36.550Z,13.00
2018-09-25T13:43:10.757Z,12.90
2018-09-25T13:45:43.868Z,12.70
2018-09-25T13:48:17.445Z,12.70
2018-09-25T13:50:50.683Z,12.60
2018-09-25T13:53:23.705Z,12.50
2018-09-25T13:55:56.851Z,12.40
2018-09-25T13:58:30.271Z,12.40
2018-09-25T14:01:05.319Z,12.20
2018-09-25T14:03:38.589Z,12.20
2018-09-25T14:06:12.036Z,12.10
2018-09-25T14:08:45.687Z,12.40
2018-09-25T14:11:19.633Z,12.70
2018-09-25T14:13:52.900Z,12.90
2018-09-25T14:16:26.232Z,13.10
2018-09-25T14:18:59.945Z,13.30
2018-09-25T14:21:34.364Z,13.10
2018-09-25T14:24:07.616Z,13.30
2018-09-25T14:26:41.668Z,13.50
2018-09-25T14:29:15.300Z,13.80
2018-09-25T14:31:48.512Z,13.90
2018-09-25T14:34:21.791Z,13.60
2018-09-25T14:36:55.102Z,13.10
2018-09-25T14:39:30.594Z,12.80
2018-09-25T14:42:04.168Z,13.10
2018-09-25T14:44:37.335Z,12.90
2018-09-25T14:47:10.799Z,12.80
2018-09-25T14:49:44.237Z,13.70
2018-09-25T14:52:17.805Z,14.60
2018-09-25T14:54:51.143Z,15.10
2018-09-25T14:57:25.602Z,15.70
2018-09-25T14:59:58.805Z,16.10
2018-09-25T15:02:32.056Z,16.50
2018-09-25T15:05:05.696Z,16.80
2018-09-25T15:07:39.541Z,17.00
2018-09-25T15:10:12.718Z,17.10
2018-09-25T15:12:46.309Z,17.20
2018-09-25T15:15:19.653Z,17.30
2018-09-25T15:17:53.208Z,17.00
2018-09-25T15:20:28.348Z,16.30
2018-09-25T15:23:01.701Z,15.30
2018-09-25T15:25:35.309Z,14.70
2018-09-25T15:28:09.252Z,14.00
2018-09-25T15:30:42.446Z,13.60
2018-09-25T15:33:16.351Z,13.20
2018-09-25T15:35:50.116Z,13.00
2018-09-25T15:38:24.407Z,12.70
2018-09-25T15:40:57.762Z,12.60
2018-09-25T15:43:32.204Z,12.40
2018-09-25T15:46:05.872Z,12.30
2018-09-25T15:48:39.664Z,12.20
2018-09-25T15:51:12.832Z,12.10
2018-09-25T15:53:46.170Z,12.00
2018-09-25T15:56:19.647Z,11.90
2018-09-25T15:58:52.950Z,11.80
2018-09-25T16:01:26.040Z,11.70
2018-09-25T16:03:59.232Z,11.60
2018-09-25T16:06:33.167Z,11.50
2018-09-25T16:09:06.698Z,11.50
2018-09-25T16:11:40.256Z,11.40
2018-09-25T16:14:13.641Z,11.40
2018-09-25T16:16:46.911Z,11.30
2018-09-25T16:19:20.334Z,11.30
2018-09-25T16:21:53.649Z,11.20
2018-09-25T16:24:26.932Z,11.20
2018-09-25T16:27:01.352Z,11.20
2018-09-25T16:29:35.506Z,11.10
2018-09-25T16:32:08.818Z,11.00
2018-09-25T16:34:42.934Z,11.00
2018-09-25T16:37:17.535Z,10.90
2018-09-25T16:39:51.135Z,10.80
2018-09-25T16:42:25.948Z,10.70
2018-09-25T16:44:59.573Z,10.60
2018-09-25T16:47:33.362Z,10.60
2018-09-25T16:50:06.741Z,10.50
2018-09-25T16:52:40.224Z,10.40
2018-09-25T16:55:14.016Z,10.40
2018-09-25T16:57:48.400Z,10.30
2018-09-25T17:00:22.020Z,10.20
2018-09-25T17:02:55.628Z,10.00
2018-09-25T17:05:28.919Z,9.90
2018-09-25T17:08:02.623Z,9.80
2018-09-25T17:10:35.900Z,9.80
2018-09-25T17:13:10.020Z,9.80
2018-09-25T17:15:43.116Z,9.70
2018-09-25T17:18:16.367Z,9.60
2018-09-25T17:20:49.521Z,9.60
2018-09-25T17:23:22.956Z,9.60
2018-09-25T17:25:56.325Z,9.60
2018-09-25T17:28:30.120Z,9.50
2018-09-25T17:31:03.432Z,9.50
2018-09-25T17:33:37.099Z,9.60
2018-09-25T17:36:10.329Z,9.60
2018-09-25T17:38:43.573Z,9.50
2018-09-25T17:41:16.816Z,9.50
2018-09-25T17:43:52.504Z,9.50
2018-09-25T17:46:25.749Z,9.60
2018-09-25T17:48:59.239Z,9.50
2018-09-25T17:51:32.395Z,9.40
2018-09-25T17:54:06.309Z,9.30
2018-09-25T17:56:40.468Z,9.20
2018-09-25T17:59:14.724Z,9.10
2018-09-25T18:01:49.825Z,9.00
2018-09-25T18:04:22.990Z,8.90
2018-09-25T18:06:56.611Z,8.80
2018-09-25T18:09:30.265Z,8.80
2018-09-25T18:12:03.992Z,8.70
2018-09-25T18:14:37.332Z,8.60
2018-09-25T18:17:10.647Z,8.50
2018-09-25T18:19:43.814Z,8.50
2018-09-25T18:22:17.178Z,8.50
2018-09-25T18:24:50.553Z,8.40
2018-09-25T18:27:24.412Z,8.30
2018-09-25T18:29:58.277Z,8.20
2018-09-25T18:32:31.992Z,8.10
2018-09-25T18:35:05.701Z,8.10
2018-09-25T18:37:38.799Z,8.00
2018-09-25T18:40:12.606Z,8.00
2018-09-25T18:42:46.431Z,7.90
2018-09-25T18:45:19.637Z,7.80
2018-09-25T18:47:53.797Z,7.60
2018-09-25T18:50:27.043Z,7.70
2018-09-25T18:53:00.284Z,7.60
2018-09-25T18:55:33.509Z,7.60
2018-09-25T18:58:08.539Z,7.60
2018-09-25T19:00:42.311Z,7.50
2018-09-25T19:03:16.677Z,7.50
2018-09-25T19:05:49.796Z,7.40
2018-09-25T19:08:23.537Z,7.20
2018-09-25T19:10:57.111Z,7.20
2018-09-25T19:13:30.524Z,7.20
2018-09-25T19:16:04.750Z,7.20
2018-09-25T19:18:38.093Z,7.10
2018-09-25T19:21:11.310Z,7.10
2018-09-25T19:23:45.157Z,7.00
2018-09-25T19:26:18.448Z,6.90
2018-09-25T19:28:52.176Z,6.90
2018-09-25T19:31:25.229Z,6.80
2018-09-25T19:33:59.039Z,6.70
2018-09-25T19:36:32.808Z,6.70
2018-09-25T19:39:06.569Z,6.70
2018-09-25T19:41:40.624Z,6.60
2018-09-25T19:44:14.102Z,6.60
2018-09-25T19:46:47.816Z,6.60
2018-09-25T19:49:21.616Z,6.50
2018-09-25T19:51:54.814Z,6.50
2018-09-25T19:54:28.567Z,6.50
2018-09-25T19:57:02.330Z,6.50
2018-09-25T19:59:35.547Z,6.40
2018-09-25T20:02:08.884Z,6.30
2018-09-25T20:04:42.476Z,6.30
2018-09-25T20:07:16.686Z,6.20
2018-09-25T20:09:51.050Z,6.20
2018-09-25T20:12:24.719Z,6.20
2018-09-25T20:14:58.053Z,6.20
2018-09-25T20:17:31.552Z,6.10
2018-09-25T20:20:04.700Z,6.10
2018-09-25T20:22:37.901Z,6.10
2018-09-25T20:25:12.184Z,6.00
2018-09-25T20:27:46.724Z,6.00
2018-09-25T20:30:19.776Z,6.00
2018-09-25T20:32:53.093Z,5.90
2018-09-25T20:35:27.500Z,5.90
2018-09-25T20:38:00.808Z,5.90
2018-09-25T20:40:34.119Z,5.80
2018-09-25T20:43:07.313Z,5.80
2018-09-25T20:45:41.865Z,5.80
2018-09-25T20:48:15.882Z,5.70
2018-09-25T20:50:49.623Z,5.80
2018-09-25T20:53:23.286Z,5.70
2018-09-25T20:55:56.409Z,5.60
2018-09-25T20:58:29.744Z,5.60
2018-09-25T21:01:03.527Z,5.50
2018-09-25T21:03:38.462Z,5.40
2018-09-25T21:06:11.487Z,5.30
2018-09-25T21:08:46.303Z,5.40
2018-09-25T21:11:19.908Z,5.40
2018-09-25T21:13:53.012Z,5.30
2018-09-25T21:16:26.404Z,5.40
2018-09-25T21:18:59.660Z,5.30
2018-09-25T21:21:34.139Z,5.20
2018-09-25T21:24:08.133Z,5.20
2018-09-25T21:26:41.347Z,5.20
2018-09-25T21:29:15.408Z,5.20
2018-09-25T21:31:48.895Z,5.10
2018-09-25T21:34:24.588Z,5.10
2018-09-25T21:36:57.878Z,5.20
2018-09-25T21:39:31.098Z,5.10
2018-09-25T21:42:05.637Z,5.10
2018-09-25T21:44:39.151Z,4.90
2018-09-25T21:47:13.143Z,4.90
2018-09-25T21:49:46.783Z,5.00
2018-09-25T21:52:20.643Z,5.00
2018-09-25T21:54:54.341Z,4.90
2018-09-25T21:57:28.200Z,4.80
2018-09-25T22:00:02.369Z,4.80
2018-09-25T22:02:35.591Z,4.80
2018-09-25T22:05:08.975Z,4.80
2018-09-25T22:07:44.079Z,4.90
2018-09-25T22:10:19.319Z,5.10
2018-09-25T22:12:53.047Z,5.00
2018-09-25T22:15:26.147Z,4.90
2018-09-25T22:17:59.526Z,4.90
2018-09-25T22:20:33.335Z,5.00
2018-09-25T22:23:07.244Z,4.80
2018-09-25T22:25:40.374Z,4.80
2018-09-25T22:28:14.045Z,4.80
2018-09-25T22:30:47.239Z,4.80
2018-09-25T22:33:20.734Z,4.80
2018-09-25T22:35:53.717Z,4.70
2018-09-25T22:38:26.951Z,4.70
2018-09-25T22:41:01.519Z,4.70
2018-09-25T22:43:34.759Z,4.70
2018-09-25T22:46:08.305Z,4.60
2018-09-25T22:48:42.311Z,4.50
2018-09-25T22:51:15.726Z,4.50
2018-09-25T22:53:49.494Z,4.50
2018-09-25T22:56:22.663Z,4.50
2018-09-25T22:58:57.035Z,4.40
2018-09-25T23:01:30.279Z,4.40
2018-09-25T23:04:04.056Z,4.40
2018-09-25T23:06:37.381Z,4.40
2018-09-25T23:09:13.351Z,4.40
2018-09-25T23:11:47.391Z,4.30
2018-09-25T23:14:21.805Z,4.20
2018-09-25T23:16:55.637Z,4.30
2018-09-25T23:19:29.412Z,4.30
2018-09-25T23:22:02.679Z,4.20
2018-09-25T23:24:35.928Z,4.20
2018-09-25T23:27:09.550Z,4.10
2018-09-25T23:29:42.767Z,4.20
2018-09-25T23:32:16.221Z,4.20
2018-09-25T23:34:51.564Z,4.20
2018-09-25T23:37:24.933Z,4.20
2018-09-25T23:40:00.522Z,4.20
2018-09-25T23:42:35.049Z,4.20
2018-09-25T23:45:08.541Z,4.00
2018-09-25T23:47:42.831Z,4.10
2018-09-25T23:50:25.763Z,4.10
2018-09-25T23:53:01.037Z,4.10
2018-09-25T23:55:33.975Z,4.10
2018-09-25T23:58:06.595Z,4.10
